Canton, Kentucky
Current Conditions -  °F | °C
As of 8:58 PM on Saturday 24 Jan 2015 (Local Time) from KHOP Reporting Station
Clear Clear  
Wind Chill: 32°   Ceiling: Unl
Heat Index: 37°   Visibility: 10mi
Dew Point: 28°   Wind: 6mph
Humidity: 71%   Direction: 190°S
Pressure: 29.87"   Gusts: NA
Location:  36.8031°N, 87.8159°W
Report Text: KHOP 250258Z AUTO 19005KT 10SM CLR 03/M02 A2987 RMK AO2 SLP121 T00271020 51004
Loading
Personal Weather Stations






























Interactive Weather Map New forecast layout! Learn more

10-Day Weather Forecast

Advertisements
Track Severe Weather on mobile